createdAt,value
2018-04-12T00:00:14.966Z,873.26
2018-04-12T00:01:14.962Z,873.27
2018-04-12T00:02:14.938Z,873.33
2018-04-12T00:03:14.930Z,873.26
2018-04-12T00:04:14.914Z,873.20
2018-04-12T00:05:14.940Z,873.21
2018-04-12T00:06:14.896Z,873.18
2018-04-12T00:07:14.887Z,873.21
2018-04-12T00:08:14.870Z,873.21
2018-04-12T00:09:14.860Z,873.22
2018-04-12T00:10:14.851Z,873.20
2018-04-12T00:11:14.840Z,873.21
2018-04-12T00:12:14.826Z,873.25
2018-04-12T00:13:14.808Z,873.28
2018-04-12T00:14:14.808Z,873.27
2018-04-12T00:15:14.787Z,873.31
2018-04-12T00:16:14.778Z,873.41
2018-04-12T00:17:14.770Z,873.46
2018-04-12T00:18:14.753Z,873.49
2018-04-12T00:19:14.739Z,873.53
2018-04-12T00:20:14.729Z,873.58
2018-04-12T00:21:14.720Z,873.56
2018-04-12T00:22:14.708Z,873.64
2018-04-12T00:23:14.696Z,873.64
2018-04-12T00:24:14.688Z,873.59
2018-04-12T00:25:14.676Z,873.62
2018-04-12T00:26:14.659Z,873.62
2018-04-12T00:27:14.647Z,873.63
2018-04-12T00:28:14.640Z,873.62
2018-04-12T00:29:14.623Z,873.63
2018-04-12T00:30:14.602Z,873.71
2018-04-12T00:31:14.593Z,873.73
2018-04-12T00:32:14.585Z,873.73
2018-04-12T00:33:14.571Z,873.77
2018-04-12T00:34:14.564Z,873.71
2018-04-12T00:35:14.554Z,873.76
2018-04-12T00:36:14.536Z,873.75
2018-04-12T00:37:14.528Z,873.70
2018-04-12T00:38:14.521Z,873.66
2018-04-12T00:39:14.502Z,873.65
2018-04-12T00:40:14.493Z,873.67
2018-04-12T00:41:14.480Z,873.66
2018-04-12T00:42:14.467Z,873.72
2018-04-12T00:43:14.454Z,873.71
2018-04-12T00:44:14.454Z,873.64
2018-04-12T00:45:14.424Z,873.56
2018-04-12T00:46:14.417Z,873.54
2018-04-12T00:47:14.401Z,873.49
2018-04-12T00:48:14.397Z,873.44
2018-04-12T00:49:14.379Z,873.37
2018-04-12T00:50:14.372Z,873.33
2018-04-12T00:51:14.360Z,873.27
2018-04-12T00:52:14.344Z,873.28
2018-04-12T00:53:14.338Z,873.24
2018-04-12T00:54:14.318Z,873.18
2018-04-12T00:55:14.311Z,873.12
2018-04-12T00:56:14.299Z,873.09
2018-04-12T00:57:14.284Z,873.10
2018-04-12T00:58:14.273Z,873.11
2018-04-12T00:59:14.262Z,873.02
2018-04-12T01:00:14.256Z,872.97
2018-04-12T01:01:14.280Z,872.93
2018-04-12T01:02:14.225Z,872.84
2018-04-12T01:03:14.216Z,872.72
2018-04-12T01:04:14.198Z,872.61
2018-04-12T01:05:14.190Z,872.54
2018-04-12T01:06:14.185Z,872.53
2018-04-12T01:07:14.168Z,872.54
2018-04-12T01:08:14.153Z,872.59
2018-04-12T01:09:14.143Z,872.52
2018-04-12T01:10:14.129Z,872.49
2018-04-12T01:11:14.119Z,872.52
2018-04-12T01:12:14.141Z,872.53
2018-04-12T01:13:14.095Z,872.53
2018-04-12T01:14:14.081Z,872.47
2018-04-12T01:15:14.075Z,872.45
2018-04-12T01:16:14.058Z,872.45
2018-04-12T01:17:14.050Z,872.46
2018-04-12T01:18:14.036Z,872.44
2018-04-12T01:19:14.026Z,872.43
2018-04-12T01:20:14.019Z,872.49
2018-04-12T01:21:13.996Z,872.48
2018-04-12T01:22:13.990Z,872.56
2018-04-12T01:23:13.977Z,872.59
2018-04-12T01:24:13.964Z,872.64
2018-04-12T01:25:13.956Z,872.69
2018-04-12T01:26:13.938Z,872.75
2018-04-12T01:27:13.928Z,872.75
2018-04-12T01:28:13.922Z,872.77
2018-04-12T01:29:13.898Z,872.85
2018-04-12T01:30:13.892Z,872.93
2018-04-12T01:31:13.875Z,872.96
2018-04-12T01:32:13.867Z,872.92
2018-04-12T01:33:13.859Z,872.92
2018-04-12T01:34:13.844Z,872.91
2018-04-12T01:35:13.831Z,872.87
2018-04-12T01:36:13.822Z,872.91
2018-04-12T01:37:13.806Z,872.90
2018-04-12T01:38:13.794Z,872.94
2018-04-12T01:39:13.784Z,872.86
2018-04-12T01:40:13.768Z,872.83
2018-04-12T01:41:13.758Z,872.86
2018-04-12T01:42:13.742Z,872.81
2018-04-12T01:43:13.730Z,872.84
2018-04-12T01:44:13.722Z,872.81
2018-04-12T01:45:13.712Z,872.86
2018-04-12T01:46:13.696Z,872.86
2018-04-12T01:47:13.687Z,872.85
2018-04-12T01:48:13.676Z,872.90
2018-04-12T01:49:13.662Z,872.93
2018-04-12T01:50:13.653Z,872.91
2018-04-12T01:51:13.628Z,872.91
2018-04-12T01:52:13.629Z,872.91
2018-04-12T01:53:13.663Z,872.92
2018-04-12T01:54:13.599Z,872.95
2018-04-12T01:55:13.594Z,872.94
2018-04-12T01:56:13.573Z,872.89
2018-04-12T01:57:13.559Z,872.85
2018-04-12T01:58:13.550Z,872.81
2018-04-12T01:59:13.538Z,872.73
2018-04-12T02:00:13.528Z,872.74
2018-04-12T02:01:13.523Z,872.71
2018-04-12T02:02:13.511Z,872.63
2018-04-12T02:03:13.491Z,872.62
2018-04-12T02:04:13.485Z,872.61
2018-04-12T02:05:13.467Z,872.61
2018-04-12T02:06:13.457Z,872.59
2018-04-12T02:07:13.443Z,872.56
2018-04-12T02:08:13.433Z,872.53
2018-04-12T02:09:13.424Z,872.53
2018-04-12T02:10:13.411Z,872.60
2018-04-12T02:11:13.397Z,872.60
2018-04-12T02:12:13.385Z,872.63
2018-04-12T02:13:13.371Z,872.62
2018-04-12T02:14:13.359Z,872.72
2018-04-12T02:15:13.345Z,872.62
2018-04-12T02:16:13.331Z,872.58
2018-04-12T02:17:13.329Z,872.54
2018-04-12T02:18:13.316Z,872.46
2018-04-12T02:19:13.306Z,872.49
2018-04-12T02:20:13.292Z,872.42
2018-04-12T02:21:13.283Z,872.41
2018-04-12T02:22:13.265Z,872.31
2018-04-12T02:23:13.255Z,872.28
2018-04-12T02:24:13.241Z,872.22
2018-04-12T02:25:13.232Z,872.16
2018-04-12T02:26:13.218Z,872.07
2018-04-12T02:27:13.201Z,872.09
2018-04-12T02:28:13.193Z,872.08
2018-04-12T02:29:13.185Z,872.06
2018-04-12T02:30:13.172Z,872.04
2018-04-12T02:31:13.158Z,872.01
2018-04-12T02:32:13.145Z,871.96
2018-04-12T02:33:13.136Z,871.98
2018-04-12T02:34:13.119Z,871.96
2018-04-12T02:35:13.114Z,871.97
2018-04-12T02:36:13.103Z,871.91
2018-04-12T02:37:13.088Z,871.93
2018-04-12T02:38:13.075Z,871.91
2018-04-12T02:39:13.057Z,871.92
2018-04-12T02:40:13.065Z,871.93
2018-04-12T02:41:13.042Z,871.92
2018-04-12T02:42:13.028Z,871.84
2018-04-12T02:43:13.020Z,871.86
2018-04-12T02:44:13.001Z,871.80
2018-04-12T02:45:13.001Z,871.81
2018-04-12T02:46:12.972Z,871.80
2018-04-12T02:47:12.966Z,871.84
2018-04-12T02:48:12.955Z,871.87
2018-04-12T02:49:12.944Z,871.87
2018-04-12T02:50:12.923Z,871.89
2018-04-12T02:51:12.918Z,871.92
2018-04-12T02:52:12.908Z,871.85
2018-04-12T02:53:12.892Z,871.81
2018-04-12T02:54:12.890Z,871.83
2018-04-12T02:55:12.866Z,871.83
2018-04-12T02:56:12.876Z,871.81
2018-04-12T02:57:12.840Z,871.81
2018-04-12T02:58:12.835Z,871.83
2018-04-12T02:59:12.827Z,871.81
2018-04-12T03:00:12.817Z,871.82
2018-04-12T03:01:12.797Z,871.81
2018-04-12T03:02:12.782Z,871.80
2018-04-12T03:03:12.775Z,871.78
2018-04-12T03:04:12.762Z,871.79
2018-04-12T03:05:12.750Z,871.81
2018-04-12T03:06:12.739Z,871.84
2018-04-12T03:07:12.731Z,871.83
2018-04-12T03:08:12.712Z,871.85
2018-04-12T03:09:12.702Z,871.89
2018-04-12T03:10:12.688Z,871.93
2018-04-12T03:11:12.680Z,871.96
2018-04-12T03:12:12.667Z,871.97
2018-04-12T03:13:12.659Z,872.03
2018-04-12T03:14:12.649Z,872.03
2018-04-12T03:15:12.631Z,872.09
2018-04-12T03:16:12.620Z,872.17
2018-04-12T03:17:12.601Z,872.21
2018-04-12T03:18:12.599Z,872.25
2018-04-12T03:19:12.577Z,872.26
2018-04-12T03:20:12.572Z,872.32
2018-04-12T03:21:12.557Z,872.35
2018-04-12T03:22:12.547Z,872.38
2018-04-12T03:23:12.533Z,872.38
2018-04-12T03:24:12.524Z,872.36
2018-04-12T03:25:12.508Z,872.36
2018-04-12T03:26:12.501Z,872.42
2018-04-12T03:27:12.485Z,872.46
2018-04-12T03:28:12.473Z,872.53
2018-04-12T03:29:12.472Z,872.52
2018-04-12T03:30:12.452Z,872.52
2018-04-12T03:31:12.447Z,872.48
2018-04-12T03:32:12.430Z,872.49
2018-04-12T03:33:12.411Z,872.52
2018-04-12T03:34:12.408Z,872.50
2018-04-12T03:35:12.390Z,872.46
2018-04-12T03:36:12.387Z,872.48
2018-04-12T03:37:12.368Z,872.51
2018-04-12T03:38:12.353Z,872.57
2018-04-12T03:39:12.347Z,872.47
2018-04-12T03:40:12.329Z,872.50
2018-04-12T03:41:12.318Z,872.52
2018-04-12T03:42:12.353Z,872.53
2018-04-12T03:43:12.304Z,872.51
2018-04-12T03:44:12.282Z,872.60
2018-04-12T03:45:12.278Z,872.58
2018-04-12T03:46:12.255Z,872.57
2018-04-12T03:47:12.241Z,872.57
2018-04-12T03:48:12.235Z,872.57
2018-04-12T03:49:12.280Z,872.58
2018-04-12T03:50:12.207Z,872.63
2018-04-12T03:51:12.195Z,872.55
2018-04-12T03:52:12.182Z,872.55
2018-04-12T03:53:12.168Z,872.53
2018-04-12T03:54:12.156Z,872.57
2018-04-12T03:55:12.144Z,872.55
2018-04-12T03:56:12.135Z,872.55
2018-04-12T03:57:12.126Z,872.55
2018-04-12T03:58:12.106Z,872.54
2018-04-12T03:59:12.104Z,872.58
2018-04-12T04:00:12.089Z,872.59
2018-04-12T04:01:12.073Z,872.61
2018-04-12T04:02:12.059Z,872.62
2018-04-12T04:03:12.053Z,872.65
2018-04-12T04:04:12.043Z,872.69
2018-04-12T04:05:12.021Z,872.69
2018-04-12T04:06:12.010Z,872.76
2018-04-12T04:07:12.019Z,872.83
2018-04-12T04:08:11.988Z,872.93
2018-04-12T04:09:11.978Z,872.97
2018-04-12T04:10:11.966Z,873.02
2018-04-12T04:11:11.947Z,872.97
2018-04-12T04:12:11.946Z,873.06
2018-04-12T04:13:11.924Z,873.07
2018-04-12T04:14:11.914Z,873.13
2018-04-12T04:15:11.896Z,873.17
2018-04-12T04:16:11.888Z,873.14
2018-04-12T04:17:11.872Z,873.21
2018-04-12T04:18:11.861Z,873.23
2018-04-12T04:19:11.853Z,873.15
2018-04-12T04:20:11.837Z,873.16
2018-04-12T04:21:11.827Z,873.14
2018-04-12T04:22:11.815Z,873.19
2018-04-12T04:23:11.810Z,873.23
2018-04-12T04:24:11.792Z,873.23
2018-04-12T04:25:11.780Z,873.26
2018-04-12T04:26:11.765Z,873.26
2018-04-12T04:27:11.750Z,873.26
2018-04-12T04:28:11.748Z,873.31
2018-04-12T04:29:11.741Z,873.37
2018-04-12T04:30:11.719Z,873.34
2018-04-12T04:31:11.705Z,873.38
2018-04-12T04:32:11.698Z,873.36
2018-04-12T04:33:11.676Z,873.40
2018-04-12T04:34:11.668Z,873.40
2018-04-12T04:35:11.654Z,873.39
2018-04-12T04:36:11.647Z,873.45
2018-04-12T04:37:11.647Z,873.48
2018-04-12T04:38:11.621Z,873.49
2018-04-12T04:39:11.612Z,873.52
2018-04-12T04:40:11.599Z,873.51
2018-04-12T04:41:11.584Z,873.56
2018-04-12T04:42:11.571Z,873.62
2018-04-12T04:43:11.556Z,873.64
2018-04-12T04:44:11.545Z,873.68
2018-04-12T04:45:11.530Z,873.71
2018-04-12T04:46:11.522Z,873.71
2018-04-12T04:47:11.508Z,873.79
2018-04-12T04:48:11.544Z,873.82
2018-04-12T04:49:11.482Z,873.86
2018-04-12T04:50:11.469Z,873.90
2018-04-12T04:51:11.457Z,873.88
2018-04-12T04:52:11.452Z,873.92
2018-04-12T04:53:11.439Z,873.93
2018-04-12T04:54:11.429Z,873.91
2018-04-12T04:55:11.409Z,873.82
2018-04-12T04:56:11.397Z,873.82
2018-04-12T04:57:11.386Z,873.75
2018-04-12T04:58:11.370Z,873.79
2018-04-12T04:59:11.359Z,873.78
2018-04-12T05:00:11.348Z,873.83
2018-04-12T05:01:11.330Z,873.84
2018-04-12T05:02:11.324Z,873.79
2018-04-12T05:03:11.306Z,873.80
2018-04-12T05:04:11.294Z,873.78
2018-04-12T05:05:11.285Z,873.76
2018-04-12T05:06:11.274Z,873.80
2018-04-12T05:07:11.315Z,873.80
2018-04-12T05:08:11.249Z,873.78
2018-04-12T05:09:11.235Z,873.70
2018-04-12T05:10:11.227Z,873.70
2018-04-12T05:11:11.208Z,873.69
2018-04-12T05:12:11.208Z,873.71
2018-04-12T05:13:11.186Z,873.67
2018-04-12T05:14:11.168Z,873.65
2018-04-12T05:15:11.156Z,873.62
2018-04-12T05:16:11.145Z,873.58
2018-04-12T05:17:11.136Z,873.55
2018-04-12T05:18:11.123Z,873.55
2018-04-12T05:19:11.110Z,873.55
2018-04-12T05:20:11.098Z,873.57
2018-04-12T05:21:11.079Z,873.52
2018-04-12T05:22:11.067Z,873.52
2018-04-12T05:23:11.055Z,873.53
2018-04-12T05:24:11.048Z,873.49
2018-04-12T05:25:11.036Z,873.46
2018-04-12T05:26:11.015Z,873.34
2018-04-12T05:27:11.008Z,873.31
2018-04-12T05:28:10.990Z,873.26
2018-04-12T05:29:10.977Z,873.24
2018-04-12T05:30:10.965Z,873.24
2018-04-12T05:31:10.952Z,873.30
2018-04-12T05:32:10.938Z,873.36
2018-04-12T05:33:10.958Z,873.40
2018-04-12T05:34:10.912Z,873.38
2018-04-12T05:35:10.918Z,873.33
2018-04-12T05:36:10.888Z,873.31
2018-04-12T05:37:10.876Z,873.26
2018-04-12T05:38:10.863Z,873.15
2018-04-12T05:39:10.852Z,873.15
2018-04-12T05:40:10.838Z,873.14
2018-04-12T05:41:10.832Z,873.09
2018-04-12T05:42:10.813Z,873.10
2018-04-12T05:43:10.802Z,873.11
2018-04-12T05:44:10.792Z,873.16
2018-04-12T05:45:10.773Z,873.14
2018-04-12T05:46:10.760Z,873.15
2018-04-12T05:47:10.749Z,873.13
2018-04-12T05:48:10.739Z,873.11
2018-04-12T05:49:10.727Z,873.15
2018-04-12T05:50:10.716Z,873.21
2018-04-12T05:51:10.710Z,873.24
2018-04-12T05:52:10.687Z,873.25
2018-04-12T05:53:10.674Z,873.30
2018-04-12T05:54:10.662Z,873.31
2018-04-12T05:55:10.644Z,873.30
2018-04-12T05:56:10.636Z,873.31
2018-04-12T05:57:10.626Z,873.35
2018-04-12T05:58:10.609Z,873.35
2018-04-12T05:59:10.593Z,873.44
2018-04-12T06:00:10.592Z,873.48
2018-04-12T06:01:10.570Z,873.54
2018-04-12T06:02:10.580Z,873.57
2018-04-12T06:03:10.546Z,873.59
2018-04-12T06:04:10.540Z,873.58
2018-04-12T06:05:10.524Z,873.63
2018-04-12T06:06:10.506Z,873.65
2018-04-12T06:07:10.502Z,873.65
2018-04-12T06:08:10.490Z,873.74
2018-04-12T06:09:10.476Z,873.80
2018-04-12T06:10:10.462Z,873.88
2018-04-12T06:11:10.450Z,873.96
2018-04-12T06:12:10.439Z,873.98
2018-04-12T06:13:10.422Z,874.00
2018-04-12T06:14:10.412Z,873.96
2018-04-12T06:15:10.398Z,874.04
2018-04-12T06:16:10.386Z,874.04
2018-04-12T06:17:10.375Z,874.13
2018-04-12T06:18:10.359Z,874.18
2018-04-12T06:19:10.347Z,874.24
2018-04-12T06:20:10.336Z,874.20
2018-04-12T06:21:10.320Z,874.20
2018-04-12T06:22:10.307Z,874.17
2018-04-12T06:23:10.298Z,874.20
2018-04-12T06:24:10.281Z,874.20
2018-04-12T06:25:10.273Z,874.22
2018-04-12T06:26:10.259Z,874.25
2018-04-12T06:27:10.262Z,874.22
2018-04-12T06:28:10.236Z,874.21
2018-04-12T06:29:10.223Z,874.21
2018-04-12T06:30:10.205Z,874.25
2018-04-12T06:31:10.200Z,874.20
2018-04-12T06:32:10.179Z,874.23
2018-04-12T06:33:10.171Z,874.28
2018-04-12T06:34:10.165Z,874.25
2018-04-12T06:35:10.143Z,874.25
2018-04-12T06:36:10.129Z,874.27
2018-04-12T06:37:10.121Z,874.27
2018-04-12T06:38:10.112Z,874.33
2018-04-12T06:39:10.090Z,874.31
2018-04-12T06:40:10.079Z,874.31
2018-04-12T06:41:10.071Z,874.27
2018-04-12T06:42:10.050Z,874.25
2018-04-12T06:43:10.042Z,874.26
2018-04-12T06:44:10.026Z,874.27
2018-04-12T06:45:10.015Z,874.26
2018-04-12T06:46:10.001Z,874.25
2018-04-12T06:47:09.982Z,874.28
2018-04-12T06:48:09.977Z,874.21
2018-04-12T06:49:09.958Z,874.25
2018-04-12T06:50:09.950Z,874.29
2018-04-12T06:51:09.942Z,874.29
2018-04-12T06:52:09.926Z,874.29
2018-04-12T06:53:09.911Z,874.30
2018-04-12T06:54:09.902Z,874.26
2018-04-12T06:55:09.892Z,874.30
2018-04-12T06:56:09.882Z,874.33
2018-04-12T06:57:09.860Z,874.31
2018-04-12T06:58:09.851Z,874.27
2018-04-12T06:59:09.838Z,874.31
2018-04-12T07:00:09.825Z,874.33
2018-04-12T07:01:09.816Z,874.39
2018-04-12T07:02:09.796Z,874.43
2018-04-12T07:03:09.786Z,874.46
2018-04-12T07:04:09.777Z,874.43
2018-04-12T07:05:09.765Z,874.40
2018-04-12T07:06:09.750Z,874.40
2018-04-12T07:07:09.738Z,874.40
2018-04-12T07:08:09.718Z,874.39
2018-04-12T07:09:09.714Z,874.40
2018-04-12T07:10:09.699Z,874.33
2018-04-12T07:11:09.687Z,874.38
2018-04-12T07:12:09.669Z,874.38
2018-04-12T07:13:09.654Z,874.39
2018-04-12T07:14:09.650Z,874.34
2018-04-12T07:15:09.632Z,874.34
2018-04-12T07:16:09.621Z,874.38
2018-04-12T07:17:09.607Z,874.39
2018-04-12T07:18:09.592Z,874.39
2018-04-12T07:19:09.590Z,874.38
2018-04-12T07:20:09.568Z,874.44
2018-04-12T07:21:09.558Z,874.49
2018-04-12T07:22:09.546Z,874.44
2018-04-12T07:23:09.526Z,874.32
2018-04-12T07:24:09.522Z,874.31
2018-04-12T07:25:09.502Z,874.35
2018-04-12T07:26:09.491Z,874.41
2018-04-12T07:27:09.486Z,874.45
2018-04-12T07:28:09.468Z,874.38
2018-04-12T07:29:09.459Z,874.31
2018-04-12T07:30:09.444Z,874.27
2018-04-12T07:31:09.430Z,874.28
2018-04-12T07:32:09.420Z,874.34
2018-04-12T07:33:09.415Z,874.32
2018-04-12T07:34:09.395Z,874.35
2018-04-12T07:35:09.416Z,874.35
2018-04-12T07:36:09.369Z,874.41
2018-04-12T07:37:09.358Z,874.35
2018-04-12T07:38:09.371Z,874.30
2018-04-12T07:39:09.329Z,874.28
2018-04-12T07:40:09.316Z,874.31
2018-04-12T07:41:09.306Z,874.36
2018-04-12T07:42:09.298Z,874.34
2018-04-12T07:43:09.280Z,874.36
2018-04-12T07:44:09.270Z,874.38
2018-04-12T07:45:09.259Z,874.40
2018-04-12T07:46:09.252Z,874.40
2018-04-12T07:47:09.229Z,874.39
2018-04-12T07:48:09.221Z,874.34
2018-04-12T07:49:09.206Z,874.37
2018-04-12T07:50:09.192Z,874.35
2018-04-12T07:51:09.186Z,874.35
2018-04-12T07:52:09.168Z,874.40
2018-04-12T07:53:09.155Z,874.42
2018-04-12T07:54:09.145Z,874.50
2018-04-12T07:55:09.137Z,874.47
2018-04-12T07:56:09.125Z,874.49
2018-04-12T07:57:09.105Z,874.46
2018-04-12T07:58:09.092Z,874.45
2018-04-12T07:59:09.089Z,874.35
2018-04-12T08:00:09.067Z,874.27
2018-04-12T08:01:09.055Z,874.21
2018-04-12T08:02:09.069Z,874.16
2018-04-12T08:03:09.032Z,874.26
2018-04-12T08:04:09.019Z,874.33
2018-04-12T08:05:09.011Z,874.35
2018-04-12T08:06:08.991Z,874.39
2018-04-12T08:07:08.984Z,874.41
2018-04-12T08:08:08.972Z,874.44
2018-04-12T08:09:08.959Z,874.53
2018-04-12T08:10:08.953Z,874.66
2018-04-12T08:11:08.930Z,874.74
2018-04-12T08:12:08.927Z,874.75
2018-04-12T08:13:08.906Z,874.68
2018-04-12T08:14:08.897Z,874.70
2018-04-12T08:15:08.888Z,874.75
2018-04-12T08:16:08.869Z,874.84
2018-04-12T08:17:08.862Z,874.83
2018-04-12T08:18:08.856Z,874.89
2018-04-12T08:19:08.839Z,874.95
2018-04-12T08:20:08.820Z,874.95
2018-04-12T08:21:08.816Z,874.91
2018-04-12T08:22:08.800Z,874.88
2018-04-12T08:23:08.787Z,874.84
2018-04-12T08:24:08.774Z,874.86
2018-04-12T08:25:08.771Z,874.90
2018-04-12T08:26:08.757Z,874.89
2018-04-12T08:27:08.742Z,874.91
2018-04-12T08:28:08.727Z,874.91
2018-04-12T08:29:08.719Z,875.03
2018-04-12T08:30:08.705Z,875.06
2018-04-12T08:31:08.692Z,875.13
2018-04-12T08:32:08.683Z,875.16
2018-04-12T08:33:08.676Z,875.24
2018-04-12T08:34:08.653Z,875.29
2018-04-12T08:35:08.646Z,875.30
2018-04-12T08:36:08.634Z,875.34
2018-04-12T08:37:08.622Z,875.41
2018-04-12T08:38:08.611Z,875.50
2018-04-12T08:39:08.598Z,875.49
2018-04-12T08:40:08.586Z,875.57
2018-04-12T08:41:08.576Z,875.52
2018-04-12T08:42:08.563Z,875.52
2018-04-12T08:43:08.553Z,875.50
2018-04-12T08:44:08.543Z,875.56
2018-04-12T08:45:08.528Z,875.60
2018-04-12T08:46:08.512Z,875.62
2018-04-12T08:47:08.508Z,875.55
2018-04-12T08:48:08.493Z,875.52
2018-04-12T08:49:08.480Z,875.52
2018-04-12T08:50:08.470Z,875.55
2018-04-12T08:51:08.454Z,875.53
2018-04-12T08:52:08.449Z,875.56
2018-04-12T08:53:08.433Z,875.56
2018-04-12T08:54:08.421Z,875.54
2018-04-12T08:55:08.411Z,875.59
2018-04-12T08:56:08.398Z,875.52
2018-04-12T08:57:08.391Z,875.43
2018-04-12T08:58:08.375Z,875.38
2018-04-12T08:59:08.356Z,875.37
2018-04-12T09:00:08.352Z,875.46
2018-04-12T09:01:08.343Z,875.51
2018-04-12T09:02:08.323Z,875.57
2018-04-12T09:03:08.321Z,875.67
2018-04-12T09:04:08.303Z,875.74
2018-04-12T09:05:08.292Z,875.71
2018-04-12T09:06:08.284Z,875.68
2018-04-12T09:07:08.268Z,875.68
2018-04-12T09:08:08.260Z,875.70
2018-04-12T09:09:08.240Z,875.72
2018-04-12T09:10:08.228Z,875.76
2018-04-12T09:11:08.218Z,875.74
2018-04-12T09:12:08.233Z,875.67
2018-04-12T09:13:08.201Z,875.70
2018-04-12T09:14:08.194Z,875.57
2018-04-12T09:15:08.181Z,875.58
2018-04-12T09:16:08.162Z,875.57
2018-04-12T09:17:08.151Z,875.53
2018-04-12T09:18:08.145Z,875.51
2018-04-12T09:19:08.127Z,875.53
2018-04-12T09:20:08.119Z,875.52
2018-04-12T09:21:08.106Z,875.51
2018-04-12T09:22:08.092Z,875.50
2018-04-12T09:23:08.100Z,875.54
2018-04-12T09:24:08.070Z,875.57
2018-04-12T09:25:08.060Z,875.58
2018-04-12T09:26:08.049Z,875.60
2018-04-12T09:27:08.042Z,875.69
2018-04-12T09:28:08.030Z,875.72
2018-04-12T09:29:08.017Z,875.72
2018-04-12T09:30:08.003Z,875.68
2018-04-12T09:31:07.994Z,875.75
2018-04-12T09:32:07.990Z,875.64
2018-04-12T09:33:07.976Z,875.66
2018-04-12T09:34:07.955Z,875.63
2018-04-12T09:35:07.944Z,875.71
2018-04-12T09:36:07.945Z,875.73
2018-04-12T09:37:07.919Z,875.78
2018-04-12T09:38:07.911Z,875.72
2018-04-12T09:39:07.901Z,875.71
2018-04-12T09:40:07.887Z,875.72
2018-04-12T09:41:07.877Z,875.77
2018-04-12T09:42:07.861Z,875.82
2018-04-12T09:43:07.851Z,875.81
2018-04-12T09:44:07.839Z,875.79
2018-04-12T09:45:07.828Z,875.79
2018-04-12T09:46:07.828Z,875.83
2018-04-12T09:47:07.810Z,875.88
2018-04-12T09:48:07.796Z,875.86
2018-04-12T09:49:07.843Z,875.94
2018-04-12T09:50:07.768Z,875.87
2018-04-12T09:51:07.756Z,875.82
2018-04-12T09:52:07.749Z,875.79
2018-04-12T09:53:07.737Z,875.81
2018-04-12T09:54:07.719Z,875.83
2018-04-12T09:55:07.710Z,875.88
2018-04-12T09:56:07.696Z,875.84
2018-04-12T09:57:07.692Z,875.85
2018-04-12T09:58:07.678Z,875.80
2018-04-12T09:59:07.664Z,875.82
2018-04-12T10:00:07.686Z,875.81
2018-04-12T10:01:07.641Z,875.82
2018-04-12T10:02:07.629Z,875.82
2018-04-12T10:03:07.621Z,875.81
2018-04-12T10:04:07.605Z,875.83
2018-04-12T10:05:07.597Z,875.87
2018-04-12T10:06:07.585Z,875.90
2018-04-12T10:07:07.575Z,875.92
2018-04-12T10:08:07.559Z,875.91
2018-04-12T10:09:07.550Z,875.88
2018-04-12T10:10:07.541Z,875.87
2018-04-12T10:11:07.524Z,875.88
2018-04-12T10:12:07.522Z,875.93
2018-04-12T10:13:07.504Z,875.91
2018-04-12T10:14:07.494Z,875.97
2018-04-12T10:15:07.477Z,875.98
2018-04-12T10:16:07.472Z,875.95
2018-04-12T10:17:07.458Z,875.95
2018-04-12T10:18:07.443Z,875.94
2018-04-12T10:19:07.437Z,875.94
2018-04-12T10:20:07.419Z,875.89
2018-04-12T10:21:07.407Z,875.89
2018-04-12T10:22:07.397Z,875.89
2018-04-12T10:23:07.392Z,875.90
2018-04-12T10:24:07.373Z,875.89
2018-04-12T10:25:07.361Z,875.85
2018-04-12T10:26:07.352Z,875.85
2018-04-12T10:27:07.346Z,875.89
2018-04-12T10:28:07.336Z,875.92
2018-04-12T10:29:07.318Z,875.88
2018-04-12T10:30:07.306Z,875.94
2018-04-12T10:31:07.296Z,875.94
2018-04-12T10:32:07.280Z,875.91
2018-04-12T10:33:07.273Z,875.90
2018-04-12T10:34:07.259Z,875.95
2018-04-12T10:35:07.255Z,875.93
2018-04-12T10:36:07.237Z,876.01
2018-04-12T10:37:07.220Z,876.01
2018-04-12T10:38:07.211Z,876.09
2018-04-12T10:39:07.199Z,876.12
2018-04-12T10:40:07.189Z,876.10
2018-04-12T10:41:07.178Z,876.05
2018-04-12T10:42:07.162Z,876.07
2018-04-12T10:43:07.158Z,876.04
2018-04-12T10:44:07.148Z,876.09
2018-04-12T10:45:07.140Z,876.07
2018-04-12T10:46:07.118Z,876.14
2018-04-12T10:47:07.105Z,876.18
2018-04-12T10:48:07.096Z,876.20
2018-04-12T10:49:07.079Z,876.25
2018-04-12T10:50:07.076Z,876.24
2018-04-12T10:51:07.068Z,876.27
2018-04-12T10:52:07.047Z,876.30
2018-04-12T10:53:07.040Z,876.27
2018-04-12T10:54:07.028Z,876.32
2018-04-12T10:55:07.007Z,876.29
2018-04-12T10:56:07.004Z,876.31
2018-04-12T10:57:06.985Z,876.35
2018-04-12T10:58:06.979Z,876.32
2018-04-12T10:59:06.966Z,876.30
2018-04-12T11:00:06.957Z,876.32
2018-04-12T11:01:06.942Z,876.30
2018-04-12T11:02:06.933Z,876.35
2018-04-12T11:03:06.919Z,876.43
2018-04-12T11:04:06.909Z,876.47
2018-04-12T11:05:06.888Z,876.50
2018-04-12T11:06:06.879Z,876.51
2018-04-12T11:07:06.872Z,876.56
2018-04-12T11:08:06.856Z,876.55
2018-04-12T11:09:06.843Z,876.57
2018-04-12T11:10:06.829Z,876.57
2018-04-12T11:11:06.820Z,876.67
2018-04-12T11:12:06.807Z,876.67
2018-04-12T11:13:06.790Z,876.70
2018-04-12T11:14:06.784Z,876.74
2018-04-12T11:15:06.772Z,876.75
2018-04-12T11:16:06.756Z,876.77
2018-04-12T11:17:06.747Z,876.80
2018-04-12T11:18:06.737Z,876.72
2018-04-12T11:19:06.729Z,876.68
2018-04-12T11:20:06.708Z,876.74
2018-04-12T11:21:06.704Z,876.71
2018-04-12T11:22:06.685Z,876.76
2018-04-12T11:23:06.674Z,876.76
2018-04-12T11:24:06.666Z,876.82
2018-04-12T11:25:06.650Z,876.85
2018-04-12T11:26:06.661Z,876.87
2018-04-12T11:27:06.622Z,876.91
2018-04-12T11:28:06.614Z,876.89
2018-04-12T11:29:06.605Z,876.89
2018-04-12T11:30:06.593Z,876.86
2018-04-12T11:31:06.582Z,876.90
2018-04-12T11:32:06.566Z,876.88
2018-04-12T11:33:06.549Z,876.90
2018-04-12T11:34:06.560Z,876.93
2018-04-12T11:35:06.529Z,876.87
2018-04-12T11:36:06.517Z,876.83
2018-04-12T11:37:06.502Z,876.92
2018-04-12T11:38:06.487Z,876.95
2018-04-12T11:39:06.478Z,876.99
2018-04-12T11:40:06.464Z,877.03
2018-04-12T11:41:06.450Z,877.01
2018-04-12T11:42:06.447Z,877.09
2018-04-12T11:43:06.427Z,877.14
2018-04-12T11:44:06.431Z,877.16
2018-04-12T11:45:06.406Z,877.20
2018-04-12T11:46:06.401Z,877.17
2018-04-12T11:47:06.381Z,877.22
2018-04-12T11:48:06.384Z,877.23
2018-04-12T11:49:06.426Z,877.24
2018-04-12T11:50:06.340Z,877.25
2018-04-12T11:51:06.336Z,877.24
2018-04-12T11:52:06.320Z,877.23
2018-04-12T11:53:06.305Z,877.26
2018-04-12T11:54:06.296Z,877.23
2018-04-12T11:55:06.281Z,877.25
2018-04-12T11:56:06.291Z,877.24
2018-04-12T11:57:06.261Z,877.21
2018-04-12T11:58:06.249Z,877.21
2018-04-12T11:59:06.237Z,877.20
2018-04-12T12:00:06.224Z,877.17
2018-04-12T12:01:06.211Z,877.17
2018-04-12T12:02:06.196Z,877.17
2018-04-12T12:03:06.187Z,877.14
2018-04-12T12:04:06.800Z,877.16
2018-04-12T12:05:06.174Z,877.16
2018-04-12T12:06:06.155Z,877.20
2018-04-12T12:07:06.143Z,877.23
2018-04-12T12:08:06.124Z,877.28
2018-04-12T12:09:06.114Z,877.24
2018-04-12T12:10:06.102Z,877.29
2018-04-12T12:11:06.095Z,877.34
2018-04-12T12:12:06.076Z,877.32
2018-04-12T12:13:06.068Z,877.37
2018-04-12T12:14:06.054Z,877.37
2018-04-12T12:15:06.041Z,877.41
2018-04-12T12:16:06.031Z,877.40
2018-04-12T12:17:06.020Z,877.44
2018-04-12T12:18:06.010Z,877.41
2018-04-12T12:19:05.995Z,877.42
2018-04-12T12:20:05.981Z,877.39
2018-04-12T12:21:05.981Z,877.44
2018-04-12T12:22:05.963Z,877.41
2018-04-12T12:23:05.943Z,877.41
2018-04-12T12:24:05.929Z,877.42
2018-04-12T12:25:05.927Z,877.39
2018-04-12T12:26:05.913Z,877.37
2018-04-12T12:27:05.895Z,877.39
2018-04-12T12:28:05.884Z,877.38